Orchard Lake, Michigan
Current Conditions -  °F | °C
As of 12:53 AM on Thursday 23 Oct 2014 (Local Time) from KPTK Reporting Station
Clear Clear  
Wind Chill: 34°   Ceiling: Unl
Heat Index: 38°   Visibility: 10mi
Dew Point: 35°   Wind: 5mph
Humidity: 89%   Direction: 350°N
Pressure: 30.27"   Gusts: NA
Location:  42.5949°N, 83.3919°W
Report Text: KPTK 230453Z AUTO 35004KT 10SM CLR 03/02 A3027 RMK AO2 SLP255 T00330017 401170033
Loading
Personal Weather Stations






























Interactive Weather Map
Tropical Storm Tracking
New forecast layout! Learn more

10-Day Weather Forecast

Advertisements
Track Severe Weather on mobile